Time;durP1;ratioP1;P1;durP2;ratioP2;P2;SDS_P1;SDS_P2;PMS_P1;PMS_P2;Temp;Humidity;BMP_temperature;BMP_pressure;BME280_temperature;BME280_humidity;BME280_pressure;Samples;Min_cycle;Max_cycle;Signal;HPM_P1;HPM_P2
2023/11/11 00:02:14;;;;;;;9.13;3.55;;;;;;;;;;5053579;28;20037;-85
2023/11/11 00:04:39;;;;;;;7.15;3.90;;;;;;;;;;5054268;28;20067;-86
2023/11/11 00:07:05;;;;;;;9.13;4.25;;;;;;;;;;5053867;28;20024;-85
2023/11/11 00:09:30;;;;;;;12.68;4.10;;;;;;;;;;5054179;28;20024;-86
2023/11/11 00:11:58;;;;;;;10.38;3.85;;;;;;;;;;5055796;28;20023;-86
2023/11/11 00:14:23;;;;;;;7.55;3.53;;;;;;;;;;5054016;28;20024;-84
2023/11/11 00:16:49;;;;;;;8.73;3.65;;;;;;;;;;5054269;28;20021;-85
2023/11/11 00:19:14;;;;;;;8.18;3.75;;;;;;;;;;5053547;28;20031;-85
2023/11/11 00:21:41;;;;;;;9.10;3.35;;;;;;;;;;5055632;28;20049;-85
2023/11/11 00:24:09;;;;;;;8.02;3.40;;;;;;;;;;5054006;28;20200;-85
2023/11/11 00:26:40;;;;;;;15.23;2.65;;;;;;;;;;5055375;28;20025;-86
2023/11/11 00:29:06;;;;;;;4.82;2.80;;;;;;;;;;5053817;28;20445;-86
2023/11/11 00:31:36;;;;;;;5.15;2.50;;;;;;;;;;5050590;28;20037;-86
2023/11/11 00:34:01;;;;;;;4.93;2.45;;;;;;;;;;5048681;28;20036;-86
2023/11/11 00:36:27;;;;;;;11.02;2.80;;;;;;;;;;5053872;28;20028;-85
2023/11/11 00:38:53;;;;;;;6.38;2.50;;;;;;;;;;5053692;28;20025;-86
2023/11/11 00:41:18;;;;;;;7.43;3.38;;;;;;;;;;5053301;28;20020;-84
2023/11/11 00:43:43;;;;;;;6.70;2.00;;;;;;;;;;5045511;28;20036;-85
2023/11/11 00:46:08;;;;;;;6.10;2.40;;;;;;;;;;5053595;28;20025;-86
2023/11/11 00:48:34;;;;;;;7.63;2.80;;;;;;;;;;5054720;28;20095;-85
2023/11/11 00:50:59;;;;;;;6.50;2.30;;;;;;;;;;5054764;28;20032;-85
2023/11/11 00:53:25;;;;;;;6.10;1.92;;;;;;;;;;5053414;28;20053;-85
2023/11/11 00:55:50;;;;;;;6.25;2.35;;;;;;;;;;5047756;28;20025;-85
2023/11/11 00:58:15;;;;;;;5.07;2.00;;;;;;;;;;5046546;28;20071;-85
2023/11/11 01:00:42;;;;;;;9.82;2.33;;;;;;;;;;5058379;28;20025;-85
2023/11/11 01:03:08;;;;;;;7.38;1.80;;;;;;;;;;5054421;28;20021;-85
2023/11/11 01:05:34;;;;;;;6.38;2.42;;;;;;;;;;5054277;28;20013;-85
2023/11/11 01:08:03;;;;;;;7.60;1.60;;;;;;;;;;5052620;28;20119;-85
2023/11/11 01:10:34;;;;;;;4.10;1.27;;;;;;;;;;5052743;28;20025;-85
2023/11/11 01:13:00;;;;;;;4.85;1.60;;;;;;;;;;5052016;28;20377;-86
2023/11/11 01:15:26;;;;;;;2.88;1.10;;;;;;;;;;5053937;28;20412;-86
2023/11/11 01:17:52;;;;;;;6.82;1.23;;;;;;;;;;5054072;28;20039;-85
2023/11/11 01:20:17;;;;;;;4.97;0.90;;;;;;;;;;5052407;28;20035;-85
2023/11/11 01:22:43;;;;;;;2.28;1.00;;;;;;;;;;5052733;28;20051;-85
2023/11/11 01:25:08;;;;;;;4.43;1.10;;;;;;;;;;5052895;28;20025;-86
2023/11/11 01:27:35;;;;;;;4.38;0.95;;;;;;;;;;5052581;28;20021;-86
2023/11/11 01:30:01;;;;;;;3.55;0.65;;;;;;;;;;5052768;28;20032;-86
2023/11/11 01:32:26;;;;;;;2.10;0.70;;;;;;;;;;5054972;28;20040;-85
2023/11/11 01:34:54;;;;;;;2.08;0.77;;;;;;;;;;5068346;28;20107;-86
2023/11/11 01:37:20;;;;;;;4.13;0.70;;;;;;;;;;5063024;28;20127;-86
2023/11/11 01:39:45;;;;;;;2.90;0.65;;;;;;;;;;5060465;28;20070;-85
2023/11/11 01:42:12;;;;;;;4.35;0.70;;;;;;;;;;5057549;28;20025;-86
2023/11/11 01:44:37;;;;;;;1.48;0.50;;;;;;;;;;5052020;28;20072;-86
2023/11/11 01:47:06;;;;;;;3.33;0.90;;;;;;;;;;5053493;28;20074;-87
2023/11/11 01:49:32;;;;;;;4.95;0.63;;;;;;;;;;5065963;28;20192;-85
2023/11/11 01:51:57;;;;;;;3.17;0.75;;;;;;;;;;5052522;28;20013;-85
2023/11/11 01:54:22;;;;;;;5.95;0.73;;;;;;;;;;5054699;28;20025;-85
2023/11/11 01:56:48;;;;;;;2.05;0.60;;;;;;;;;;5060306;28;20025;-85
2023/11/11 01:59:14;;;;;;;2.22;0.60;;;;;;;;;;5051997;28;20025;-85
2023/11/11 02:01:39;;;;;;;2.10;0.50;;;;;;;;;;5052461;28;20032;-85
2023/11/11 02:04:05;;;;;;;4.03;0.75;;;;;;;;;;5051321;28;20028;-84
2023/11/11 02:06:34;;;;;;;7.30;0.55;;;;;;;;;;5066655;28;20059;-84
2023/11/11 02:08:59;;;;;;;1.08;0.50;;;;;;;;;;5061543;28;20027;-85
2023/11/11 02:11:25;;;;;;;1.80;0.40;;;;;;;;;;5071579;28;20021;-85
2023/11/11 02:13:51;;;;;;;0.82;0.40;;;;;;;;;;5063460;28;20631;-84
2023/11/11 02:16:16;;;;;;;3.10;0.47;;;;;;;;;;5065849;28;20029;-84
2023/11/11 02:18:41;;;;;;;2.95;0.45;;;;;;;;;;5071745;28;20101;-85
2023/11/11 02:21:07;;;;;;;4.53;0.63;;;;;;;;;;5054667;28;20025;-85
2023/11/11 02:23:34;;;;;;;2.30;0.60;;;;;;;;;;5065272;28;20025;-85
2023/11/11 02:25:59;;;;;;;0.63;0.30;;;;;;;;;;5051397;28;20025;-86
2023/11/11 02:28:24;;;;;;;5.78;0.95;;;;;;;;;;5053228;28;20038;-85
2023/11/11 02:30:50;;;;;;;4.38;0.63;;;;;;;;;;5062934;28;20078;-86
2023/11/11 02:33:15;;;;;;;0.60;0.40;;;;;;;;;;5064774;28;20024;-85
2023/11/11 02:35:40;;;;;;;0.57;0.40;;;;;;;;;;5051295;28;20025;-85
2023/11/11 02:38:05;;;;;;;1.60;0.50;;;;;;;;;;5051418;28;20384;-85
2023/11/11 02:40:31;;;;;;;1.58;0.52;;;;;;;;;;5067887;28;20044;-85
2023/11/11 02:42:56;;;;;;;4.65;0.82;;;;;;;;;;5060116;28;20439;-85
2023/11/11 02:45:23;;;;;;;4.05;0.70;;;;;;;;;;5057236;28;20025;-85
2023/11/11 02:47:48;;;;;;;2.50;0.93;;;;;;;;;;5052229;28;20025;-85
2023/11/11 02:50:14;;;;;;;3.08;0.88;;;;;;;;;;5063450;28;20029;-86
2023/11/11 02:52:39;;;;;;;3.90;1.20;;;;;;;;;;5057255;28;20032;-85
2023/11/11 02:55:05;;;;;;;2.55;0.98;;;;;;;;;;5060983;28;20114;-85
2023/11/11 02:57:30;;;;;;;4.47;0.98;;;;;;;;;;5052526;28;20029;-85
2023/11/11 02:59:55;;;;;;;4.95;1.67;;;;;;;;;;5051055;28;20039;-85
2023/11/11 03:02:22;;;;;;;4.10;1.55;;;;;;;;;;5051547;28;20132;-84
2023/11/11 03:04:49;;;;;;;5.00;1.50;;;;;;;;;;5051485;28;20419;-85
2023/11/11 03:07:14;;;;;;;2.00;1.15;;;;;;;;;;5063901;28;20052;-85
2023/11/11 03:09:42;;;;;;;4.28;1.55;;;;;;;;;;5056699;28;20059;-85
2023/11/11 03:12:09;;;;;;;3.42;1.40;;;;;;;;;;5060348;28;20116;-85
2023/11/11 03:14:35;;;;;;;10.27;1.90;;;;;;;;;;5050590;28;20362;-85
2023/11/11 03:17:00;;;;;;;3.45;1.60;;;;;;;;;;5050896;28;20040;-85
2023/11/11 03:19:25;;;;;;;5.40;1.70;;;;;;;;;;5050684;28;20029;-86
2023/11/11 03:21:50;;;;;;;4.03;1.33;;;;;;;;;;5051384;28;20033;-86
2023/11/11 03:24:16;;;;;;;7.32;1.65;;;;;;;;;;5050935;28;20036;-85
2023/11/11 03:26:41;;;;;;;3.97;1.45;;;;;;;;;;5051099;28;20086;-86
2023/11/11 03:29:06;;;;;;;4.53;1.67;;;;;;;;;;5061953;28;20027;-85
2023/11/11 03:31:31;;;;;;;2.50;1.30;;;;;;;;;;5057155;28;20024;-85
2023/11/11 03:33:57;;;;;;;4.15;1.40;;;;;;;;;;5060671;28;20049;-86
2023/11/11 03:36:22;;;;;;;6.80;1.80;;;;;;;;;;5053232;28;20033;-86
2023/11/11 03:38:47;;;;;;;4.70;1.67;;;;;;;;;;5058576;28;20031;-85
2023/11/11 03:41:13;;;;;;;7.32;2.25;;;;;;;;;;5066885;28;20090;-85
2023/11/11 03:43:38;;;;;;;5.57;2.00;;;;;;;;;;5055734;28;20025;-85
2023/11/11 03:46:03;;;;;;;8.03;2.40;;;;;;;;;;5065092;28;20032;-84
2023/11/11 03:48:29;;;;;;;5.70;2.03;;;;;;;;;;5055156;28;20028;-85
2023/11/11 03:50:55;;;;;;;5.53;2.20;;;;;;;;;;5054568;28;20017;-86
2023/11/11 03:53:21;;;;;;;3.77;1.70;;;;;;;;;;5054967;28;20433;-86
2023/11/11 03:55:46;;;;;;;5.17;1.93;;;;;;;;;;5054629;28;20024;-86
2023/11/11 03:58:12;;;;;;;6.17;2.30;;;;;;;;;;5054916;28;20151;-86
2023/11/11 04:00:44;;;;;;;11.57;2.28;;;;;;;;;;5054766;28;20053;-85
2023/11/11 04:03:09;;;;;;;;;;;;;;;;;;5055088;28;20364;-86
2023/11/11 04:05:34;;;;;;;8.33;3.43;;;;;;;;;;5067577;28;19904;-85
2023/11/11 04:07:59;;;;;;;9.35;2.55;;;;;;;;;;5055434;28;20277;-85
2023/11/11 04:10:25;;;;;;;12.50;3.95;;;;;;;;;;5053901;28;20032;-85
2023/11/11 04:12:50;;;;;;;9.23;3.05;;;;;;;;;;5054396;28;20021;-85
2023/11/11 04:15:16;;;;;;;8.77;2.85;;;;;;;;;;5064568;28;20119;-85
2023/11/11 04:17:45;;;;;;;10.13;2.67;;;;;;;;;;5059470;28;20033;-86
2023/11/11 04:20:11;;;;;;;10.18;2.80;;;;;;;;;;5062701;28;20480;-86
2023/11/11 04:22:37;;;;;;;11.55;3.17;;;;;;;;;;5058691;28;20401;-86
2023/11/11 04:25:05;;;;;;;5.53;3.17;;;;;;;;;;5054139;28;20063;-85
2023/11/11 04:27:31;;;;;;;9.47;3.33;;;;;;;;;;5065589;28;20029;-85
2023/11/11 04:29:56;;;;;;;8.80;3.80;;;;;;;;;;5056254;28;20024;-85
2023/11/11 04:32:21;;;;;;;14.00;3.47;;;;;;;;;;5055348;28;20021;-86
2023/11/11 04:34:46;;;;;;;9.80;3.80;;;;;;;;;;5053738;28;20052;-85
2023/11/11 04:37:12;;;;;;;8.80;3.90;;;;;;;;;;5054304;28;20074;-86
2023/11/11 04:39:40;;;;;;;10.48;3.63;;;;;;;;;;5063381;28;20036;-86
2023/11/11 04:42:06;;;;;;;8.57;3.93;;;;;;;;;;5057981;28;20025;-85
2023/11/11 04:44:31;;;;;;;10.30;3.28;;;;;;;;;;5053680;28;20514;-85
2023/11/11 04:46:58;;;;;;;16.33;4.82;;;;;;;;;;5053570;28;20025;-85
2023/11/11 04:49:24;;;;;;;10.73;3.97;;;;;;;;;;5054430;28;20027;-85
2023/11/11 04:51:49;;;;;;;12.88;3.85;;;;;;;;;;5053597;28;20024;-84
2023/11/11 04:54:14;;;;;;;12.67;5.80;;;;;;;;;;5071151;28;20023;-84
2023/11/11 04:56:40;;;;;;;12.90;5.17;;;;;;;;;;5073187;28;20024;-85
2023/11/11 04:59:05;;;;;;;11.53;5.07;;;;;;;;;;5058658;28;20036;-85
2023/11/11 05:01:30;;;;;;;11.90;4.50;;;;;;;;;;5067203;28;20031;-84
2023/11/11 05:03:55;;;;;;;11.00;4.90;;;;;;;;;;5053213;28;20717;-85
2023/11/11 05:06:21;;;;;;;11.50;5.50;;;;;;;;;;5053228;28;20103;-85
2023/11/11 05:08:46;;;;;;;13.77;4.43;;;;;;;;;;5064523;28;20055;-84
2023/11/11 05:11:12;;;;;;;12.10;4.83;;;;;;;;;;5057386;28;20021;-84
2023/11/11 05:13:41;;;;;;;10.80;4.90;;;;;;;;;;5062371;28;20021;-85
2023/11/11 05:16:20;;;;;;;12.37;5.47;;;;;;;;;;5072505;28;20085;-85
2023/11/11 05:18:46;;;;;;;11.27;5.15;;;;;;;;;;5053179;28;20048;-85
2023/11/11 05:21:11;;;;;;;13.27;5.53;;;;;;;;;;5067340;28;20503;-85
2023/11/11 05:23:37;;;;;;;13.13;5.20;;;;;;;;;;5052639;28;20127;-84
2023/11/11 05:26:03;;;;;;;13.80;4.80;;;;;;;;;;5053507;28;20025;-85
2023/11/11 05:28:28;;;;;;;14.47;6.17;;;;;;;;;;5052059;28;20016;-84
2023/11/11 05:30:53;;;;;;;9.90;4.53;;;;;;;;;;5064925;28;20025;-84
2023/11/11 05:33:18;;;;;;;18.43;5.23;;;;;;;;;;5054726;28;20104;-84
2023/11/11 05:35:43;;;;;;;12.70;5.43;;;;;;;;;;5052053;28;20112;-85
2023/11/11 05:38:09;;;;;;;15.43;5.35;;;;;;;;;;5053208;28;20082;-84
2023/11/11 05:40:35;;;;;;;12.33;5.60;;;;;;;;;;5069581;28;20016;-84
2023/11/11 05:43:00;;;;;;;13.80;5.90;;;;;;;;;;5052235;28;20073;-84
2023/11/11 05:45:25;;;;;;;14.53;6.37;;;;;;;;;;5054512;28;20480;-85
2023/11/11 05:47:50;;;;;;;12.70;6.27;;;;;;;;;;5064784;28;20473;-85
2023/11/11 05:50:16;;;;;;;18.63;6.97;;;;;;;;;;5058895;28;20461;-85
2023/11/11 05:52:41;;;;;;;10.73;5.33;;;;;;;;;;5057215;28;20109;-84
2023/11/11 05:55:08;;;;;;;16.83;5.43;;;;;;;;;;5054339;28;20021;-85
2023/11/11 05:57:33;;;;;;;16.27;6.03;;;;;;;;;;5053293;28;20115;-84
2023/11/11 05:59:59;;;;;;;14.27;5.10;;;;;;;;;;5052396;28;20130;-85
2023/11/11 06:02:25;;;;;;;13.03;4.90;;;;;;;;;;5051990;28;20025;-84
2023/11/11 06:04:50;;;;;;;13.90;5.03;;;;;;;;;;5065633;28;20112;-84
2023/11/11 06:07:15;;;;;;;12.00;5.27;;;;;;;;;;5052073;28;20025;-84
2023/11/11 06:09:41;;;;;;;19.10;6.50;;;;;;;;;;5051664;28;20265;-84
2023/11/11 06:12:06;;;;;;;12.23;4.80;;;;;;;;;;5051716;28;20430;-84
2023/11/11 06:14:31;;;;;;;12.70;5.47;;;;;;;;;;5066965;28;20039;-84
2023/11/11 06:16:57;;;;;;;14.47;5.43;;;;;;;;;;5064381;28;20021;-85
2023/11/11 06:19:24;;;;;;;14.53;5.70;;;;;;;;;;5051451;28;20078;-84
2023/11/11 06:21:49;;;;;;;12.43;4.80;;;;;;;;;;5051611;28;20028;-85
2023/11/11 06:24:14;;;;;;;12.00;5.40;;;;;;;;;;5051129;28;20185;-84
2023/11/11 06:26:40;;;;;;;11.10;5.40;;;;;;;;;;5059758;28;20070;-85
2023/11/11 06:29:06;;;;;;;11.43;5.20;;;;;;;;;;5051403;28;20160;-85
2023/11/11 06:31:32;;;;;;;14.13;4.47;;;;;;;;;;5051680;28;20052;-85
2023/11/11 06:33:58;;;;;;;12.37;5.67;;;;;;;;;;5058391;28;20028;-83
2023/11/11 06:36:24;;;;;;;17.07;5.87;;;;;;;;;;5055997;28;20524;-85
2023/11/11 06:38:49;;;;;;;14.67;5.50;;;;;;;;;;5064934;28;20060;-84
2023/11/11 06:41:14;;;;;;;10.53;5.07;;;;;;;;;;5061361;28;20024;-85
2023/11/11 06:43:40;;;;;;;13.87;5.33;;;;;;;;;;5071511;28;20016;-84
2023/11/11 06:46:08;;;;;;;14.40;5.70;;;;;;;;;;5064536;28;20524;-85
2023/11/11 06:48:33;;;;;;;11.13;5.20;;;;;;;;;;5058007;28;20059;-85
2023/11/11 06:50:59;;;;;;;13.97;5.43;;;;;;;;;;5056182;28;20020;-85
2023/11/11 06:53:24;;;;;;;9.53;4.93;;;;;;;;;;5060728;28;20025;-85
2023/11/11 06:55:49;;;;;;;13.87;5.17;;;;;;;;;;5052679;28;20053;-85
2023/11/11 06:58:15;;;;;;;13.77;5.47;;;;;;;;;;5051148;28;20025;-84
2023/11/11 07:00:41;;;;;;;14.13;5.17;;;;;;;;;;5051680;28;20100;-84
2023/11/11 07:03:06;;;;;;;13.53;4.43;;;;;;;;;;5061912;28;20074;-84
2023/11/11 07:05:31;;;;;;;15.80;5.10;;;;;;;;;;5052349;28;20028;-84
2023/11/11 07:07:57;;;;;;;15.83;5.20;;;;;;;;;;5050442;28;20028;-84
2023/11/11 07:10:22;;;;;;;12.17;5.67;;;;;;;;;;5051313;28;20024;-84
2023/11/11 07:12:47;;;;;;;14.43;4.77;;;;;;;;;;5055364;28;20112;-84
2023/11/11 07:15:15;;;;;;;14.33;5.37;;;;;;;;;;5063398;28;20020;-83
2023/11/11 07:17:41;;;;;;;12.67;5.40;;;;;;;;;;5054745;28;20025;-84
2023/11/11 07:20:10;;;;;;;13.97;5.83;;;;;;;;;;5055124;28;20120;-84
2023/11/11 07:22:35;;;;;;;9.90;3.93;;;;;;;;;;5068132;28;20035;-84
2023/11/11 07:25:02;;;;;;;22.43;5.77;;;;;;;;;;5069981;28;20116;-84
2023/11/11 07:27:28;;;;;;;13.03;5.50;;;;;;;;;;5062099;28;20028;-84
2023/11/11 07:29:54;;;;;;;15.20;5.83;;;;;;;;;;5057292;28;20615;-84
2023/11/11 07:32:19;;;;;;;14.37;5.13;;;;;;;;;;5054149;28;20086;-84
2023/11/11 07:34:44;;;;;;;14.17;5.60;;;;;;;;;;5061990;28;20035;-84
2023/11/11 07:37:11;;;;;;;15.23;5.20;;;;;;;;;;5058450;28;20048;-84
2023/11/11 07:39:38;;;;;;;13.17;5.40;;;;;;;;;;5064114;28;20028;-85
2023/11/11 07:42:04;;;;;;;14.10;5.30;;;;;;;;;;5059154;28;20056;-84
2023/11/11 07:44:29;;;;;;;12.33;5.07;;;;;;;;;;5063757;28;20028;-83
2023/11/11 07:46:54;;;;;;;11.77;5.07;;;;;;;;;;5074528;28;20028;-84
2023/11/11 07:49:19;;;;;;;11.17;4.53;;;;;;;;;;5069086;28;20025;-84
2023/11/11 07:51:45;;;;;;;11.17;4.93;;;;;;;;;;5055859;28;20104;-84
2023/11/11 07:54:10;;;;;;;12.30;4.53;;;;;;;;;;5069927;28;20100;-84
2023/11/11 07:56:36;;;;;;;15.33;4.97;;;;;;;;;;5054354;28;20048;-85
2023/11/11 07:59:02;;;;;;;10.57;4.50;;;;;;;;;;5069077;28;20036;-83
2023/11/11 08:01:30;;;;;;;19.90;4.70;;;;;;;;;;5074383;28;20028;-84
2023/11/11 08:03:56;;;;;;;19.40;5.17;;;;;;;;;;5060065;28;20028;-84
2023/11/11 08:06:21;;;;;;;14.70;4.97;;;;;;;;;;5073699;28;20039;-84
2023/11/11 08:08:46;;;;;;;14.67;4.63;;;;;;;;;;5075444;28;20054;-84
2023/11/11 08:11:14;;;;;;;14.37;4.10;;;;;;;;;;5057022;28;20021;-84
2023/11/11 08:13:39;;;;;;;11.23;3.80;;;;;;;;;;5063702;28;20021;-84
2023/11/11 08:16:05;;;;;;;13.20;4.60;;;;;;;;;;5062925;28;20472;-84
2023/11/11 08:18:30;;;;;;;9.13;3.83;;;;;;;;;;5066662;28;20024;-84
2023/11/11 08:20:56;;;;;;;9.67;4.33;;;;;;;;;;5068640;28;20020;-83
2023/11/11 08:23:21;;;;;;;8.90;4.03;;;;;;;;;;5054241;28;20063;-84
2023/11/11 08:25:46;;;;;;;11.10;3.93;;;;;;;;;;5063842;28;20025;-84
2023/11/11 08:28:12;;;;;;;14.60;5.07;;;;;;;;;;5056667;28;20028;-85
2023/11/11 08:30:39;;;;;;;11.60;3.97;;;;;;;;;;5065453;28;20017;-83
2023/11/11 08:33:04;;;;;;;9.87;3.97;;;;;;;;;;5054980;28;20049;-84
2023/11/11 08:35:29;;;;;;;12.63;3.85;;;;;;;;;;5073856;28;20093;-84
2023/11/11 08:37:55;;;;;;;10.13;4.17;;;;;;;;;;5060560;28;20032;-84
2023/11/11 08:40:25;;;;;;;8.47;3.63;;;;;;;;;;5058420;28;20025;-84
2023/11/11 08:42:51;;;;;;;10.83;3.40;;;;;;;;;;5061606;28;20029;-84
2023/11/11 08:45:16;;;;;;;11.35;3.45;;;;;;;;;;5059408;28;20094;-84
2023/11/11 08:47:41;;;;;;;15.37;3.93;;;;;;;;;;5052984;28;20029;-83
2023/11/11 08:50:09;;;;;;;10.23;3.37;;;;;;;;;;5052771;28;20009;-84
2023/11/11 08:52:37;;;;;;;6.33;3.23;;;;;;;;;;5054647;28;20410;-84
2023/11/11 08:55:03;;;;;;;13.63;4.17;;;;;;;;;;5064186;28;20017;-84
2023/11/11 08:57:28;;;;;;;14.43;3.67;;;;;;;;;;5073668;28;20033;-84
2023/11/11 08:59:53;;;;;;;10.40;3.50;;;;;;;;;;5074574;28;20048;-85
2023/11/11 09:02:19;;;;;;;11.60;3.53;;;;;;;;;;5054469;28;20040;-85
2023/11/11 09:04:45;;;;;;;8.93;3.60;;;;;;;;;;5050675;28;20036;-84
2023/11/11 09:07:10;;;;;;;8.07;3.27;;;;;;;;;;5052428;28;20032;-85
2023/11/11 09:09:35;;;;;;;10.73;4.27;;;;;;;;;;5052515;28;20486;-85
2023/11/11 09:12:01;;;;;;;14.23;3.27;;;;;;;;;;5053520;28;20036;-85
2023/11/11 09:14:27;;;;;;;16.45;3.55;;;;;;;;;;5057923;28;20488;-84
2023/11/11 09:16:52;;;;;;;13.47;3.30;;;;;;;;;;5060965;28;20028;-85
2023/11/11 09:19:17;;;;;;;8.90;3.87;;;;;;;;;;5058704;28;20133;-85
2023/11/11 09:21:42;;;;;;;13.10;3.97;;;;;;;;;;5072886;28;20440;-85
2023/11/11 09:24:08;;;;;;;15.27;4.70;;;;;;;;;;5060906;28;20468;-84
2023/11/11 09:26:33;;;;;;;11.43;3.30;;;;;;;;;;5066067;28;20021;-84
2023/11/11 09:28:59;;;;;;;9.52;3.08;;;;;;;;;;5072692;28;20016;-85
2023/11/11 09:31:28;;;;;;;10.33;3.27;;;;;;;;;;5070608;28;20062;-84
2023/11/11 09:33:55;;;;;;;10.03;3.07;;;;;;;;;;5051267;28;20036;-84
2023/11/11 09:36:20;;;;;;;9.60;3.97;;;;;;;;;;5052951;28;20029;-85
2023/11/11 09:38:46;;;;;;;7.00;3.70;;;;;;;;;;5072088;28;20035;-85
2023/11/11 09:41:11;;;;;;;5.77;2.57;;;;;;;;;;5057595;28;20025;-84
2023/11/11 09:43:37;;;;;;;7.97;3.80;;;;;;;;;;5066620;28;20119;-85
2023/11/11 09:46:03;;;;;;;12.73;4.30;;;;;;;;;;5052673;28;20028;-84
2023/11/11 09:48:29;;;;;;;10.07;3.30;;;;;;;;;;5061177;28;20389;-84
2023/11/11 09:50:58;;;;;;;8.47;2.93;;;;;;;;;;5053034;28;20036;-85
2023/11/11 09:53:25;;;;;;;7.63;2.90;;;;;;;;;;5052386;28;20074;-84
2023/11/11 09:55:52;;;;;;;8.07;3.65;;;;;;;;;;5069394;28;20470;-85
2023/11/11 09:58:19;;;;;;;7.55;2.83;;;;;;;;;;5064415;28;20403;-85
2023/11/11 10:00:45;;;;;;;10.90;3.53;;;;;;;;;;5052118;28;20047;-85
2023/11/11 10:03:10;;;;;;;13.18;3.47;;;;;;;;;;5051832;28;20021;-84
2023/11/11 10:05:35;;;;;;;5.88;2.67;;;;;;;;;;5053106;28;20024;-85
2023/11/11 10:08:00;;;;;;;6.70;2.72;;;;;;;;;;5053046;28;20024;-85
2023/11/11 10:10:26;;;;;;;7.55;2.60;;;;;;;;;;5052939;28;20463;-85
2023/11/11 10:12:51;;;;;;;11.52;2.35;;;;;;;;;;5062182;28;20020;-85
2023/11/11 10:15:16;;;;;;;13.55;2.92;;;;;;;;;;5064120;28;20075;-84
2023/11/11 10:17:42;;;;;;;7.63;2.38;;;;;;;;;;5051520;28;20056;-84
2023/11/11 10:20:13;;;;;;;4.70;2.13;;;;;;;;;;5051765;28;20108;-85
2023/11/11 10:22:46;;;;;;;4.43;2.38;;;;;;;;;;5052409;28;20035;-85
2023/11/11 10:25:12;;;;;;;5.03;2.75;;;;;;;;;;5044561;28;20024;-85
2023/11/11 10:27:38;;;;;;;7.38;2.67;;;;;;;;;;5056111;28;20091;-85
2023/11/11 10:30:04;;;;;;;8.38;2.05;;;;;;;;;;5057160;28;20020;-85
2023/11/11 10:32:29;;;;;;;10.20;2.70;;;;;;;;;;5060382;28;20031;-85
2023/11/11 10:34:56;;;;;;;6.32;1.85;;;;;;;;;;5051195;28;20621;-85
2023/11/11 10:37:21;;;;;;;6.13;2.65;;;;;;;;;;5059919;28;20707;-84
2023/11/11 10:39:47;;;;;;;10.68;2.42;;;;;;;;;;5072395;28;20104;-88
2023/11/11 10:42:13;;;;;;;4.07;2.15;;;;;;;;;;5057241;28;20040;-85
2023/11/11 10:44:40;;;;;;;6.18;2.30;;;;;;;;;;5050631;28;20111;-89
2023/11/11 10:47:06;;;;;;;2.83;1.27;;;;;;;;;;5051813;28;20017;-85
2023/11/11 10:49:33;;;;;;;8.88;2.75;;;;;;;;;;5044727;28;20036;-85
2023/11/11 10:52:00;;;;;;;6.57;2.42;;;;;;;;;;5048716;28;20025;-85
2023/11/11 10:54:26;;;;;;;5.75;2.03;;;;;;;;;;5057396;28;20070;-85
2023/11/11 10:56:51;;;;;;;2.88;1.77;;;;;;;;;;5059622;28;20024;-84
2023/11/11 10:59:17;;;;;;;7.22;1.88;;;;;;;;;;5049913;28;20025;-85
2023/11/11 11:01:43;;;;;;;6.57;2.75;;;;;;;;;;5050798;28;20119;-85
2023/11/11 11:04:08;;;;;;;8.63;2.95;;;;;;;;;;5059478;28;20031;-85
2023/11/11 11:06:49;;;;;;;2.65;0.80;;;;;;;;;;5055983;28;20055;-85
2023/11/11 11:09:38;;;;;;;6.00;2.35;;;;;;;;;;5055781;28;20109;-86
2023/11/11 11:12:10;;;;;;;7.05;2.63;;;;;;;;;;5051008;28;20017;-85
2023/11/11 11:14:39;;;;;;;6.13;2.28;;;;;;;;;;5050580;28;20048;-86
2023/11/11 11:17:08;;;;;;;6.35;1.67;;;;;;;;;;5061056;28;20587;-86
2023/11/11 11:19:33;;;;;;;6.80;2.33;;;;;;;;;;5049778;28;20472;-87
2023/11/11 11:22:10;;;;;;;6.88;2.25;;;;;;;;;;5058830;28;20027;-86
2023/11/11 11:24:37;;;;;;;7.55;2.05;;;;;;;;;;5052259;28;20029;-85
2023/11/11 11:27:02;;;;;;;5.25;1.70;;;;;;;;;;5052462;28;20051;-85
2023/11/11 11:29:31;;;;;;;5.60;1.88;;;;;;;;;;5052825;28;20013;-86
2023/11/11 11:32:04;;;;;;;12.40;2.20;;;;;;;;;;5050818;28;20016;-87
2023/11/11 11:34:30;;;;;;;9.48;1.98;;;;;;;;;;5049949;28;20072;-86
2023/11/11 11:36:55;;;;;;;5.32;1.63;;;;;;;;;;5050767;28;20111;-87
2023/11/11 11:39:24;;;;;;;6.68;1.88;;;;;;;;;;5052726;28;20017;-86
2023/11/11 11:41:50;;;;;;;7.72;2.08;;;;;;;;;;5064382;28;20021;-86
2023/11/11 11:44:18;;;;;;;4.85;1.20;;;;;;;;;;5050666;28;20110;-86
2023/11/11 11:46:45;;;;;;;1.90;1.13;;;;;;;;;;5062979;28;20070;-87
2023/11/11 11:49:10;;;;;;;3.22;1.25;;;;;;;;;;5052333;28;20013;-86
2023/11/11 11:51:50;;;;;;;4.88;1.33;;;;;;;;;;5043660;28;20512;-87
2023/11/11 11:54:15;;;;;;;5.65;1.35;;;;;;;;;;5047316;28;20036;-84
2023/11/11 11:56:41;;;;;;;5.28;0.85;;;;;;;;;;5054737;28;20369;-84
2023/11/11 11:59:11;;;;;;;5.05;1.30;;;;;;;;;;5063554;28;20357;-86
2023/11/11 12:01:36;;;;;;;2.90;0.60;;;;;;;;;;5060817;28;20444;-85
2023/11/11 12:04:01;;;;;;;4.10;1.20;;;;;;;;;;5054757;28;20016;-84
2023/11/11 12:06:27;;;;;;;3.58;1.20;;;;;;;;;;5050938;28;20021;-85
2023/11/11 12:08:56;;;;;;;6.55;1.27;;;;;;;;;;5055773;28;20028;-85
2023/11/11 12:11:31;;;;;;;7.72;1.20;;;;;;;;;;5054017;28;20468;-85
2023/11/11 12:14:02;;;;;;;4.90;1.38;;;;;;;;;;5053318;28;20472;-85
2023/11/11 12:16:40;;;;;;;1.85;0.90;;;;;;;;;;5056408;28;20040;-85
2023/11/11 12:19:09;;;;;;;2.95;0.90;;;;;;;;;;5053741;28;20047;-86
2023/11/11 12:21:35;;;;;;;4.07;0.90;;;;;;;;;;5057275;28;20464;-86
2023/11/11 12:24:01;;;;;;;2.60;1.10;;;;;;;;;;5056750;28;20385;-86
2023/11/11 12:26:27;;;;;;;2.28;0.85;;;;;;;;;;5054164;28;20028;-89
2023/11/11 12:28:53;;;;;;;2.55;0.95;;;;;;;;;;5053297;28;20025;-87
2023/11/11 12:31:18;;;;;;;5.63;0.90;;;;;;;;;;5053803;28;20049;-87
2023/11/11 12:33:44;;;;;;;3.95;1.25;;;;;;;;;;5052475;28;20089;-87
2023/11/11 12:36:09;;;;;;;2.03;1.02;;;;;;;;;;5053622;28;20020;-87
2023/11/11 12:38:35;;;;;;;4.72;1.13;;;;;;;;;;5053649;28;20024;-88
2023/11/11 12:41:08;;;;;;;3.58;1.35;;;;;;;;;;5068322;28;20012;-88
2023/11/11 12:43:33;;;;;;;3.40;1.23;;;;;;;;;;5053770;28;20023;-87
2023/11/11 12:45:59;;;;;;;3.80;1.50;;;;;;;;;;5068023;28;20125;-87
2023/11/11 12:48:31;;;;;;;5.53;1.50;;;;;;;;;;5055329;28;20024;-86
2023/11/11 12:50:57;;;;;;;5.18;1.25;;;;;;;;;;5069204;28;20033;-87
2023/11/11 12:53:22;;;;;;;6.55;1.27;;;;;;;;;;5052424;28;20085;-87
2023/11/11 12:56:02;;;;;;;4.35;1.73;;;;;;;;;;5052625;28;20021;-89
2023/11/11 12:58:27;;;;;;;4.10;1.80;;;;;;;;;;5064531;28;20017;-88
2023/11/11 13:00:57;;;;;;;4.85;1.40;;;;;;;;;;5058757;28;20024;-88
2023/11/11 13:03:29;;;;;;;4.28;1.58;;;;;;;;;;5055720;28;20029;-87
2023/11/11 13:05:58;;;;;;;3.88;1.63;;;;;;;;;;5055095;28;20032;-88
2023/11/11 13:08:25;;;;;;;3.67;1.55;;;;;;;;;;5053861;28;20025;-87
2023/11/11 13:10:54;;;;;;;4.55;1.55;;;;;;;;;;5055015;28;20024;-88
2023/11/11 13:13:19;;;;;;;2.30;1.40;;;;;;;;;;5073907;28;20485;-88
2023/11/11 13:15:45;;;;;;;3.15;1.33;;;;;;;;;;5060236;28;20025;-88
2023/11/11 13:18:10;;;;;;;5.68;2.00;;;;;;;;;;5057669;28;20461;-89
2023/11/11 13:20:36;;;;;;;7.15;1.80;;;;;;;;;;5064394;28;20021;-88
2023/11/11 13:23:01;;;;;;;0.70;0.57;;;;;;;;;;5057834;28;20044;-88
2023/11/11 13:25:26;;;;;;;2.25;1.02;;;;;;;;;;5053172;28;20028;-91
2023/11/11 13:27:52;;;;;;;4.97;1.95;;;;;;;;;;5053980;28;20084;-89
2023/11/11 13:30:17;;;;;;;5.80;1.20;;;;;;;;;;5053899;28;20021;-89
2023/11/11 13:32:43;;;;;;;3.92;1.40;;;;;;;;;;5058487;28;20074;-90
2023/11/11 13:35:10;;;;;;;1.48;0.68;;;;;;;;;;5058881;28;20016;-91
2023/11/11 13:37:37;;;;;;;6.00;1.58;;;;;;;;;;5063969;28;20039;-90
2023/11/11 13:40:10;;;;;;;3.35;1.42;;;;;;;;;;5053259;28;20075;-90
2023/11/11 13:42:38;;;;;;;6.60;1.33;;;;;;;;;;5039977;28;20017;-89
2023/11/11 13:45:06;;;;;;;4.97;1.50;;;;;;;;;;5053705;28;20115;-90
2023/11/11 13:47:31;;;;;;;2.88;0.93;;;;;;;;;;5058262;28;20029;-91
2023/11/11 13:49:57;;;;;;;3.50;1.40;;;;;;;;;;5063596;28;20108;-90
2023/11/11 13:52:22;;;;;;;2.80;0.90;;;;;;;;;;5067224;28;20020;-90
2023/11/11 13:54:47;;;;;;;1.77;0.63;;;;;;;;;;5062454;28;20028;-89
2023/11/11 13:57:15;;;;;;;4.35;0.90;;;;;;;;;;5064360;28;20082;-90
2023/11/11 13:59:43;;;;;;;5.45;0.80;;;;;;;;;;5058338;28;20039;-89
2023/11/11 14:02:11;;;;;;;3.88;0.93;;;;;;;;;;5060335;28;20028;-89
2023/11/11 14:04:36;;;;;;;4.28;1.05;;;;;;;;;;5051762;28;20029;-90
2023/11/11 14:07:07;;;;;;;2.40;0.90;;;;;;;;;;5051848;28;20029;-89
2023/11/11 14:09:33;;;;;;;4.97;1.40;;;;;;;;;;5052045;28;20029;-90
2023/11/11 14:11:58;;;;;;;2.63;0.98;;;;;;;;;;5053062;28;20024;-87
2023/11/11 14:14:24;;;;;;;2.60;0.80;;;;;;;;;;5051862;28;20025;-89
2023/11/11 14:16:49;;;;;;;2.22;0.90;;;;;;;;;;5052349;28;20029;-88
2023/11/11 14:19:15;;;;;;;7.05;0.70;;;;;;;;;;5051170;28;20013;-88
2023/11/11 14:21:40;;;;;;;2.08;0.90;;;;;;;;;;5057029;28;20017;-87
2023/11/11 14:24:06;;;;;;;2.97;1.45;;;;;;;;;;5060176;28;20020;-86
2023/11/11 14:26:31;;;;;;;4.45;1.00;;;;;;;;;;5055216;28;20024;-88
2023/11/11 14:28:58;;;;;;;13.27;0.75;;;;;;;;;;5055053;28;20469;-88
2023/11/11 14:31:23;;;;;;;1.58;0.80;;;;;;;;;;5051885;28;20017;-87
2023/11/11 14:33:49;;;;;;;2.80;1.13;;;;;;;;;;5052894;28;20032;-88